Latest Weather Observations for Viewbank

IDV60901

Issued at 6:15 am EDT Saturday 1 November 2014 (issued every 10 minutes, with the page automatically refreshed every 10 minutes)

About weather observations | Map of Melbourne area stations | Latest observations for Melbourne area | Other Formats
Station Details ID: 086068 Name: VIEWBANK Lat: -37.74 Lon: 145.10 Height: 66.1 m
Data from the previous 72 hours. | See also: Recent months at Viewbank
Date/Time
EDT
Tmp

°C
App
Tmp
°C
Dew
Point
°C
Rel
Hum
%
Delta-T

°C
Wind Press
QNH
hPa
Press
MSL
hPa
Rain
since
9 am
mm
Dir
 
Spd
km/h
Gust
km/h
Spd
kts
Gust
kts
01/06:00am 14.2 11.6 13.2 94 0.6 WSW 19 28 10 15 1001.0 1000.9 -
01/05:30am 15.1 13.2 11.7 80 1.8 WSW 13 20 7 11 999.7 999.6 -
01/05:00am 16.2 15.3 10.7 70 3.0 NW 6 9 3 5 999.9 999.8 -
01/04:30am 16.0 15.7 10.1 68 3.1 E 2 6 1 3 999.3 999.2 -
01/04:00am 16.4 16.1 10.0 66 3.4 WSW 2 6 1 3 1000.2 1000.1 -
01/03:30am 16.6 14.1 9.8 64 3.6 SSW 13 22 7 12 1000.5 1000.4 -
01/03:00am 16.9 14.7 10.7 67 3.3 WSW 13 22 7 12 1000.2 1000.1 -
01/02:30am 17.3 - 10.4 64 3.7 - - - - - 1000.8 1000.7 -
01/02:00am 17.8 14.2 10.4 62 4.0 W 20 33 11 18 1000.5 1000.4 0.0
01/01:30am 18.7 14.9 9.8 56 4.7 SW 20 32 11 17 999.8 999.7 0.0
01/01:00am 18.4 17.3 10.7 61 4.2 SSW 7 9 4 5 999.8 999.7 0.0
01/12:30am 18.8 15.7 10.4 58 4.5 SSW 17 26 9 14 999.3 999.2 0.0
01/12:00am 20.3 13.9 8.6 47 6.2 SW 32 54 17 29 999.1 999.0 0.0
 
Date/Time
EDT
Tmp

°C
App
Tmp
°C
Dew
Point
°C
Rel
Hum
%
Delta-T

°C
Wind Press
QNH
hPa
Press
MSL
hPa
Rain
since
9 am
mm
Dir
 
Spd
km/h
Gust
km/h
Spd
kts
Gust
kts
31/11:44pm 25.9 19.6 5.5 27 10.5 SSW 28 44 15 24 997.9 997.8 0.0
31/11:30pm 26.6 23.4 5.0 25 11.0 N 11 15 6 8 996.7 996.6 0.0
31/11:00pm 26.7 22.7 5.1 25 11.1 N 15 20 8 11 996.8 996.7 0.0
31/10:30pm 26.4 22.8 4.8 25 11.0 N 13 20 7 11 997.0 996.9 0.0
31/10:00pm 26.2 23.4 5.2 26 10.8 N 9 15 5 8 997.4 997.3 0.0
31/09:30pm 25.5 23.3 5.1 27 10.4 NNE 6 7 3 4 997.6 997.5 0.0
31/09:00pm 26.4 24.2 5.4 26 10.9 NNE 6 9 3 5 997.8 997.7 0.0
31/08:30pm 27.3 25.2 5.6 25 11.3 NE 6 9 3 5 998.0 997.9 0.0
31/08:00pm 28.1 26.0 5.6 24 11.8 NE 6 7 3 4 998.3 998.2 0.0
31/07:30pm 28.9 26.3 4.4 21 12.6 NNE 7 11 4 6 998.6 998.5 0.0
31/07:00pm 29.9 27.0 4.5 20 13.2 N 9 19 5 10 998.9 998.8 0.0
31/06:30pm 30.6 27.0 2.8 17 14.0 N 11 19 6 10 999.5 999.4 0.0
31/06:00pm 30.9 25.7 2.2 16 14.4 NNW 19 35 10 19 1000.1 1000.0 0.0
31/05:30pm 32.2 26.0 2.3 15 15.1 NNW 24 35 13 19 1000.2 1000.1 0.0
31/05:00pm 31.6 26.0 3.6 17 14.5 N 22 43 12 23 1000.7 1000.6 0.0
31/04:42pm 31.3 24.7 4.2 18 14.1 N 28 46 15 25 1001.0 1000.9 0.0
31/04:30pm 31.3 25.6 4.9 19 13.9 N 24 52 13 28 1001.0 1000.9 0.0
31/04:00pm 31.8 26.6 5.3 19 14.1 NNW 22 43 12 23 1001.5 1001.4 0.0
31/03:30pm 31.1 25.5 5.5 20 13.6 N 24 44 13 24 1002.1 1002.0 0.0
31/03:05pm 30.0 23.6 5.3 21 12.9 N 28 48 15 26 1002.7 1002.6 0.0
31/03:00pm 30.1 24.5 5.4 21 13.0 N 24 44 13 24 1002.9 1002.8 0.0
31/02:30pm 30.4 25.4 6.3 22 12.9 N 22 41 12 22 1003.6 1003.5 0.0
31/02:00pm 28.5 21.2 2.7 19 12.9 N 30 48 16 26 1004.2 1004.1 0.0
31/01:53pm 29.1 22.2 2.4 18 13.2 N 28 48 15 26 1004.2 1004.1 0.0
31/01:30pm 28.2 21.2 1.7 18 12.9 N 28 44 15 24 1004.7 1004.7 0.0
31/01:00pm 27.4 22.8 5.6 25 11.3 N 19 33 10 18 1005.4 1005.4 0.0
31/12:30pm 26.6 22.2 6.6 28 10.5 N 19 32 10 17 1006.4 1006.4 0.0
31/12:00pm 25.3 19.9 4.4 26 10.5 N 22 41 12 22 1006.9 1006.9 0.0
31/11:30am 25.3 22.8 8.3 34 9.1 NNE 11 24 6 13 1007.5 1007.5 0.0
31/11:00am 23.4 21.5 9.0 40 7.8 NNE 9 15 5 8 1008.0 1008.0 0.0
31/10:30am 20.9 20.1 11.8 56 5.1 NE 7 9 4 5 1008.5 1008.5 0.0
31/10:00am 18.4 17.2 11.5 64 3.8 NE 9 11 5 6 1009.0 1009.0 0.0
31/09:30am 16.8 15.6 11.7 72 2.8 ENE 9 13 5 7 1009.3 1009.3 0.0
31/09:00am 13.5 12.2 11.2 86 1.2 E 9 13 5 7 1009.6 1009.6 0.0
31/08:30am 12.3 11.4 11.2 93 0.6 NE 7 9 4 5 1010.0 1010.0 0.0
31/08:00am 11.2 10.2 11.0 99 0.1 NE 7 11 4 6 1010.1 1010.1 0.0
31/07:30am 9.8 8.7 9.8 100 0.0 NE 6 9 3 5 1010.5 1010.5 0.0
31/07:00am 8.3 6.6 8.3 100 0.0 NE 7 7 4 4 1010.6 1010.6 0.0
31/06:30am 7.5 6.9 7.5 100 0.0 CALM 0 0 0 0 1010.9 1010.9 0.0
31/06:00am 8.0 7.2 8.0 100 0.0 NNE 2 6 1 3 1010.8 1010.8 0.0
31/05:30am 8.4 6.9 8.4 100 0.0 N 6 9 3 5 1010.5 1010.5 0.0
31/05:00am 8.6 7.5 8.6 100 0.0 NE 4 6 2 3 1010.7 1010.7 0.0
31/04:30am 8.8 7.8 8.8 100 0.0 NNE 4 7 2 4 1011.3 1011.3 0.0
31/04:00am 9.2 9.0 9.2 100 0.0 CALM 0 4 0 2 1011.2 1011.2 0.0
31/03:30am 9.4 9.3 9.3 99 0.0 CALM 0 0 0 0 1011.3 1011.3 0.0
31/03:00am 9.6 8.2 9.5 99 0.0 NE 7 9 4 5 1011.7 1011.7 0.0
31/02:30am 10.6 10.8 10.4 99 0.1 CALM 0 0 0 0 1012.1 1012.1 0.0
31/02:00am 11.0 11.2 10.5 97 0.3 CALM 0 0 0 0 1012.4 1012.3 0.0
31/01:30am 11.3 10.4 10.8 97 0.3 SW 6 7 3 4 1013.2 1013.1 0.0
31/01:00am 11.3 10.1 10.4 94 0.5 SW 7 9 4 5 1013.8 1013.7 0.0
31/12:30am 12.0 10.9 10.6 91 0.7 S 7 11 4 6 1013.7 1013.6 0.0
31/12:00am 12.3 10.8 10.7 90 0.8 SSW 9 13 5 7 1014.0 1013.9 0.0
 
Date/Time
EDT
Tmp

°C
App
Tmp
°C
Dew
Point
°C
Rel
Hum
%
Delta-T

°C
Wind Press
QNH
hPa
Press
MSL
hPa
Rain
since
9 am
mm
Dir
 
Spd
km/h
Gust
km/h
Spd
kts
Gust
kts
30/11:30pm 12.7 11.3 10.8 88 1.0 S 9 17 5 9 1014.0 1013.9 0.0
30/11:00pm 13.0 11.2 10.7 86 1.2 S 11 19 6 10 1013.8 1013.7 0.0
30/10:30pm 13.0 11.5 10.5 85 1.3 S 9 13 5 7 1014.0 1013.9 0.0
30/10:00pm 13.4 12.0 9.6 78 1.9 S 7 11 4 6 1013.7 1013.6 0.0
30/09:30pm 14.2 12.1 9.6 74 2.4 S 11 19 6 10 1013.5 1013.4 0.0
30/09:00pm 15.3 12.9 9.9 70 2.8 S 13 22 7 12 1013.2 1013.1 0.0
30/08:30pm 16.1 13.6 9.8 66 3.3 SW 13 20 7 11 1012.9 1012.8 0.0
30/08:00pm 17.1 15.0 8.3 56 4.5 SW 9 15 5 8 1012.8 1012.7 0.0
30/07:30pm 18.8 16.3 8.2 50 5.5 SSW 11 17 6 9 1012.6 1012.5 0.0
30/07:00pm 19.6 17.5 8.3 48 5.9 S 9 15 5 8 1012.6 1012.5 0.0
30/06:30pm 19.3 17.7 8.0 48 5.8 S 6 9 3 5 1012.5 1012.4 0.0
30/06:00pm 20.3 18.3 7.3 43 6.7 S 7 13 4 7 1012.6 1012.5 0.0
30/05:30pm 20.9 18.7 7.9 43 6.8 S 9 17 5 9 1012.6 1012.5 0.0
30/05:00pm 21.1 16.9 7.3 41 7.1 SSW 19 26 10 14 1012.5 1012.4 0.0
30/04:30pm 21.7 18.2 8.6 43 6.9 SSW 17 26 9 14 1012.5 1012.4 0.0
30/04:00pm 21.9 18.2 8.1 41 7.3 SSW 17 26 9 14 1012.3 1012.2 0.0
30/03:30pm 21.5 17.7 9.1 45 6.6 SSW 19 30 10 16 1012.3 1012.2 0.0
30/03:00pm 21.7 18.4 9.6 46 6.5 SSW 17 28 9 15 1012.6 1012.5 0.0
30/02:30pm 21.8 19.3 11.2 51 5.9 SSW 15 22 8 12 1012.9 1012.8 0.0
30/02:00pm 21.0 18.3 8.9 46 6.4 SSW 13 20 7 11 1013.3 1013.2 0.0
30/01:30pm 20.9 17.2 9.5 48 6.1 SW 19 24 10 13 1013.7 1013.6 0.0
30/01:00pm 20.6 18.7 8.9 47 6.2 WNW 9 17 5 9 1013.9 1013.8 0.0
30/12:30pm 19.4 17.4 8.7 50 5.6 SSE 9 17 5 9 1014.3 1014.2 0.0
30/12:00pm 19.2 16.9 9.1 52 5.3 SW 11 19 6 10 1014.7 1014.6 0.0
30/11:30am 18.2 16.3 9.0 55 4.8 SW 9 20 5 11 1015.2 1015.1 0.0
30/11:00am 17.5 15.0 9.7 60 4.1 W 13 22 7 12 1015.6 1015.5 0.0
30/10:30am 17.2 15.4 9.6 61 4.0 WSW 9 15 5 8 1015.9 1015.8 0.0
30/10:00am 16.3 14.0 9.0 62 3.8 W 11 19 6 10 1016.0 1015.9 0.0
30/09:30am 15.4 13.9 9.3 67 3.2 WSW 7 15 4 8 1015.8 1015.7 0.0
30/09:00am 14.4 13.6 9.6 73 2.5 SW 4 7 2 4 1016.0 1015.9 0.0
30/08:30am 13.6 13.3 11.5 87 1.1 E 4 7 2 4 1016.0 1015.9 0.0
30/08:00am 13.1 12.8 11.5 90 0.9 NNE 4 7 2 4 1015.7 1015.6 0.0
30/07:30am 12.5 13.1 12.0 97 0.3 CALM 0 0 0 0 1015.3 1015.2 0.0
30/07:00am 12.0 12.6 11.8 99 0.1 CALM 0 0 0 0 1015.0 1014.9 0.0
30/06:30am 11.9 11.7 11.7 99 0.1 ENE 4 6 2 3 1014.5 1014.4 0.0
30/06:00am 11.9 11.3 11.6 98 0.2 NE 6 7 3 4 1014.6 1014.5 0.0
30/05:30am 12.0 12.0 11.2 95 0.4 NE 2 6 1 3 1014.8 1014.7 0.0
30/05:00am 12.2 12.2 11.3 94 0.5 NE 2 7 1 4 1014.7 1014.6 0.0
30/04:30am 12.5 11.7 11.2 92 0.7 NE 6 9 3 5 1014.3 1014.2 0.0
30/04:00am 12.9 13.1 11.8 93 0.6 N 2 6 1 3 1014.4 1014.3 0.0
30/03:30am 13.0 13.6 11.9 93 0.6 CALM 0 0 0 0 1014.7 1014.6 0.0
30/03:00am 13.2 12.9 11.3 88 1.0 N 4 6 2 3 1014.8 1014.7 0.0
30/02:30am 12.8 13.2 11.4 91 0.7 CALM 0 0 0 0 1015.2 1015.1 0.0
30/02:00am 12.7 13.1 11.1 90 0.8 CALM 0 0 0 0 1015.5 1015.4 0.0
30/01:30am 12.6 13.1 11.5 93 0.6 CALM 0 0 0 0 1015.9 1015.8 0.0
30/01:00am 12.5 12.5 11.2 92 0.7 SW 2 6 1 3 1016.2 1016.1 0.0
30/12:30am 12.1 11.0 10.8 92 0.7 SW 7 9 4 5 1016.4 1016.3 0.0
30/12:00am 12.2 11.3 10.6 90 0.8 SW 6 7 3 4 1016.2 1016.1 0.0
 
Date/Time
EDT
Tmp

°C
App
Tmp
°C
Dew
Point
°C
Rel
Hum
%
Delta-T

°C
Wind Press
QNH
hPa
Press
MSL
hPa
Rain
since
9 am
mm
Dir
 
Spd
km/h
Gust
km/h
Spd
kts
Gust
kts
29/11:30pm 12.4 11.4 10.3 87 1.1 SSW 6 7 3 4 1016.3 1016.2 0.0
29/11:00pm 12.8 12.1 10.2 84 1.3 ESE 4 7 2 4 1016.5 1016.4 0.0
29/10:30pm 13.5 12.4 10.1 80 1.8 SE 6 9 3 5 1016.4 1016.3 0.0
29/10:00pm 13.9 13.2 9.9 77 2.1 SE 4 9 2 5 1016.6 1016.5 0.0
29/09:30pm 14.9 13.5 9.7 71 2.7 SE 7 11 4 6 1016.2 1016.1 0.0
29/09:00pm 15.8 13.1 9.0 64 3.5 SSW 13 22 7 12 1015.7 1015.6 0.0
29/08:30pm 16.2 13.1 8.9 62 3.8 SSW 15 22 8 12 1015.5 1015.4 0.0
29/08:00pm 16.4 13.7 8.9 61 3.9 S 13 20 7 11 1015.1 1015.0 0.0
29/07:30pm 17.3 13.3 8.4 56 4.6 SSW 19 28 10 15 1014.6 1014.5 0.0
29/07:00pm 21.1 18.6 8.4 44 6.7 SSW 11 19 6 10 1014.0 1013.9 0.0
29/06:30pm 21.5 19.1 8.7 44 6.8 SSW 11 17 6 9 1013.9 1013.8 0.0
29/06:00pm 22.5 19.7 8.6 41 7.4 WSW 13 20 7 11 1014.0 1013.9 0.0
29/05:30pm 22.3 19.0 8.1 40 7.5 SSW 15 22 8 12 1013.9 1013.8 0.0
29/05:00pm 23.3 20.0 8.2 38 8.0 W 15 22 8 12 1013.9 1013.8 0.0
29/04:30pm 22.1 20.0 8.2 41 7.3 WNW 9 17 5 9 1014.1 1014.0 0.0
29/04:00pm 21.5 20.0 8.4 43 6.9 WNW 6 11 3 6 1014.4 1014.3 0.0
29/03:30pm 21.8 19.4 8.7 43 7.0 N 11 20 6 11 1014.8 1014.7 0.0
29/03:00pm 21.4 18.9 8.3 43 6.9 W 11 20 6 11 1015.4 1015.3 0.0
29/02:30pm 20.7 18.9 8.0 44 6.6 NNE 7 15 4 8 1016.0 1015.9 0.0
29/02:00pm 19.1 16.7 7.2 46 6.0 NNE 9 17 5 9 1016.6 1016.5 0.0
29/01:30pm 19.0 16.5 8.1 49 5.6 WNW 11 19 6 10 1017.1 1017.0 0.0
29/01:00pm 17.8 15.1 7.2 50 5.3 NNW 11 20 6 11 1017.4 1017.4 0.0
29/12:30pm 16.8 13.9 6.6 51 5.0 W 11 19 6 10 1017.8 1017.8 0.0
29/12:00pm 16.2 13.3 6.3 52 4.8 NW 11 20 6 11 1018.3 1018.3 0.0
29/11:30am 15.6 13.5 6.6 55 4.4 W 7 15 4 8 1018.7 1018.7 0.0
29/11:00am 14.6 12.3 7.6 63 3.5 NNW 9 19 5 10 1019.0 1019.0 0.0
29/10:30am 14.2 12.0 7.7 65 3.2 SW 9 13 5 7 1019.1 1019.1 0.0
29/10:00am 13.6 11.1 6.7 63 3.3 WNW 9 15 5 8 1019.3 1019.3 0.0
29/09:30am 13.6 11.7 7.4 66 3.0 W 7 11 4 6 1019.2 1019.2 0.0
29/09:00am 13.2 11.5 8.5 73 2.3 W 7 13 4 7 1019.1 1019.1 0.8
29/08:30am 12.5 10.9 8.6 77 1.9 NW 7 13 4 7 1019.1 1019.1 0.8
29/08:00am 11.2 10.6 10.3 94 0.5 N 4 7 2 4 1019.0 1019.0 0.8
29/07:30am 10.2 10.3 10.0 99 0.1 CALM 0 7 0 4 1018.9 1018.9 0.8
29/07:00am 9.4 8.5 9.3 99 0.0 NE 4 7 2 4 1018.6 1018.6 0.8
29/06:30am 9.3 7.4 9.2 99 0.0 N 9 11 5 6 1018.4 1018.4 0.8

Latest Capital City Observations: Canberra | Sydney | Melbourne | Brisbane | Adelaide | Perth | Hobart | Darwin

Other Formats:

Comma delimited format used in spreadsheet applications
http://www.bom.gov.au/fwo/IDV60901/IDV60901.95874.axf

JavaScript Object Notation format (JSON) in row-major order
http://www.bom.gov.au/fwo/IDV60901/IDV60901.95874.json